首页
METAR-TAF:

METAR-TAF

机场 :

溫哥華, 不列颠哥伦比亚, 加拿大

溫哥華國際機場

纬度: 49-11N, 经度: 123-10W, 海拔: 3米

当前天气观测

该预报发布于11分钟前的23:54 UTC
风速12节,风向
温度 10°C
湿度 87%
气压 1004 hPa
能見度: 32.2公里
少量云层高于3000英尺
散云层高于5000英尺
散云层高于6300英尺
多云层高于8000英尺
阴天层高于15000英尺

METAR: CYVR 172354Z CCA 08012KT 20SM FEW030 SCT050 SCT063 BKN080 OVC150 10/08 A2965 RMK SC2SC1SC1AC2AC2 SLP043

时间: 16:05 (00:05 UTC)

预报

该预报发布于26分钟前的23:39 UTC
预报有效从18日的 00点(UTC)到 19日的 06点(UTC)
风速10节,风向,有时为25节阵风
能見度: 10公里
多云层高于4000英尺
阴天层高于8000英尺
小雨
从 18日的 0200点(UTC)
风速15节,风向东南,有时为25节阵风
能見度: 10公里
多云层高于4000英尺
短暂存在
从 18日的 02点(UTC)到 19日的 06点(UTC)
能見度: 8.0公里
阴天层高于3000英尺
小阵雨, 轻雾
成为
从 18日的 02点(UTC)到 18日的 04点(UTC)
风速15节,风向东南

TAF: CYVR 172339Z 1800/1906 09010G25KT WS005/18025KT P6SM -RA BKN040 OVC080 FM180200 14015G25KT P6SM BKN040 TEMPO 1802/1906 5SM -SHRA BR OVC030 BECMG 1802/1804 14015KT RMK NXT FCST BY 180300Z

超过4000个机场的气象观测和天气预报(METAR&TAF报告)。

可查询的气象台以黄色和红色小点在地图上表示。

将鼠标移到小点上方,可查看气象台名称。

然后点击查看天气观测和预报。

如需切换地图:点击带黑十字的绿色按钮放大地图;点击带横线的绿色按钮缩小地图;或者点击绿色箭头查看邻近地区的地图。


METAR-TAF: